< < Back
Terminal Aerodrome Forecast


Current Version              Previous Versions:   1  2  3  4  5  6  7  8  9  

Terminal Aerodrome Forecast

833
FTUS44 KMRX 281123
TAFTYS
TAF
KTYS 281123Z 2812/2912 02005KT P6SM BKN250
     FM281400 04007KT P6SM BKN250
     FM290300 04003KT P6SM BKN080
     FM291000 VRB03KT P6SM -RA BKN050=



Latest METAR

003
SAUS80 KWBC 281400 RRA
MTRTYS
METAR KTYS 281353Z 04012KT 10SM FEW180 FEW250 13/04 A3000 RMK AO2 SLP155
T01280044


USA.gov is the U.S. government's official web portal to all federal, state and local government web resources and services.